GOT weather

Gothenburg-Landvetter Airport
Gothenburg, Västra Götalands län, Sweden

Public forecast

Using degrees Celsius for public forecast. Weather courtesy of forecast.io.

METAR (pilot weather report)

Retrieved 2019/05/26 14:20 UTC (17 minutes ago):

ESGG 261420Z 26012KT 9999 SCT034 12/03 Q1002

TAF (pilot weather forecast)

Retrieved 2019/05/26 12:33 UTC (2 hours ago):

TAF ESGG 261130Z 2612/2712 25015G28KT 9999 BKN025 BECMG 2618/2621 20005KT TEMPO 2703/2712 RA PROB40 2706/2711 BKN008